Time;durP1;ratioP1;P1;durP2;ratioP2;P2;SDS_P1;SDS_P2;PMS_P1;PMS_P2;Temp;Humidity;BMP_temperature;BMP_pressure;BME280_temperature;BME280_humidity;BME280_pressure;Samples;Min_cycle;Max_cycle;Signal;HPM_P1;HPM_P2
2021/08/15 00:00:00;;;;;;;18.13;14.27;;;;;;;16.10;71.43;99493.80;532584;1089;117571;-60
2021/08/15 00:10:08;;;;;;;17.93;15.73;;;;;;;16.08;71.68;99486.02;532621;1087;117001;-59
2021/08/15 00:20:15;;;;;;;16.87;12.33;;;;;;;16.04;71.52;99494.36;531808;1089;117701;-61
2021/08/15 00:30:21;;;;;;;16.20;14.03;;;;;;;16.10;71.43;99489.36;532473;1090;117898;-60
2021/08/15 00:40:28;;;;;;;16.63;13.87;;;;;;;16.14;72.04;99484.63;532553;1088;117217;-60
2021/08/15 00:50:36;;;;;;;21.60;16.80;;;;;;;16.23;72.42;99475.86;521897;1088;117802;-61
2021/08/15 01:00:42;;;;;;;17.27;13.63;;;;;;;16.08;72.28;99471.92;523669;1088;116270;-60
2021/08/15 01:10:49;;;;;;;15.43;13.93;;;;;;;16.04;72.37;99473.18;531881;1088;116614;-60
2021/08/15 01:20:59;;;;;;;17.43;13.47;;;;;;;15.94;72.33;99476.64;532538;1088;174662;-60
2021/08/15 01:31:06;;;;;;;16.53;14.30;;;;;;;15.87;73.14;99478.14;532564;1089;117726;-60
2021/08/15 01:41:13;;;;;;;14.67;13.17;;;;;;;15.79;72.55;99470.03;531876;1089;116239;-60
2021/08/15 01:51:21;;;;;;;16.47;12.90;;;;;;;15.74;72.82;99464.29;532683;1089;116589;-60
2021/08/15 02:01:27;;;;;;;17.87;14.60;;;;;;;15.70;73.09;99455.81;530553;1090;116582;-57
2021/08/15 02:11:35;;;;;;;16.23;14.70;;;;;;;15.62;73.06;99443.22;532544;1089;117420;-60
2021/08/15 02:21:41;;;;;;;15.40;13.90;;;;;;;15.55;73.07;99436.81;532531;1088;117113;-60
2021/08/15 02:31:47;;;;;;;15.63;14.10;;;;;;;15.48;73.39;99433.87;531759;1089;116926;-65
2021/08/15 02:41:54;;;;;;;18.17;14.90;;;;;;;15.43;73.52;99440.53;532622;1088;116392;-57
2021/08/15 02:52:00;;;;;;;19.87;16.13;;;;;;;15.45;74.36;99423.53;532571;1089;116887;-60
2021/08/15 03:02:07;;;;;;;16.13;14.47;;;;;;;15.48;74.28;99411.84;531881;1088;116813;-60
2021/08/15 03:12:14;;;;;;;18.57;16.57;;;;;;;15.48;74.55;99412.70;532621;1088;117139;-60
2021/08/15 03:22:21;;;;;;;18.17;14.33;;;;;;;15.45;74.11;99407.66;532590;1088;117391;-60
2021/08/15 03:32:28;;;;;;;15.20;13.63;;;;;;;15.39;74.17;99403.73;531882;1088;117047;-60
2021/08/15 03:42:35;;;;;;;17.03;15.33;;;;;;;15.47;74.45;99408.38;532600;1090;116303;-60
2021/08/15 03:52:43;;;;;;;16.77;13.73;;;;;;;15.74;74.53;99411.35;531864;1089;117483;-60
2021/08/15 04:02:49;;;;;;;16.23;13.60;;;;;;;16.19;74.39;99407.41;532568;1089;116500;-60
2021/08/15 04:12:56;;;;;;;20.77;17.10;;;;;;;16.54;74.60;99403.34;525082;1090;117017;-60
2021/08/15 04:23:03;;;;;;;21.43;19.20;;;;;;;16.89;74.29;99390.41;519960;1089;116832;-60
2021/08/15 04:33:09;;;;;;;17.47;15.50;;;;;;;17.46;73.16;99386.85;532584;1089;117061;-61
2021/08/15 04:43:15;;;;;;;16.17;14.40;;;;;;;18.16;72.67;99380.95;532565;1089;116771;-60
2021/08/15 04:53:22;;;;;;;17.70;15.35;;;;;;;18.71;71.84;99375.56;519477;1089;116880;-59
2021/08/15 05:03:29;;;;;;;16.03;14.53;;;;;;;19.71;70.56;99376.84;528850;1088;116071;-59
2021/08/15 05:13:35;;;;;;;14.53;12.63;;;;;;;28.47;63.20;99384.36;531838;1089;116771;-60
2021/08/15 05:23:42;;;;;;;12.67;10.70;;;;;;;32.45;51.42;99388.61;532641;1088;116820;-60
2021/08/15 05:33:49;;;;;;;10.53;9.60;;;;;;;29.45;50.74;99381.91;532556;1089;117188;-60
2021/08/15 05:43:55;;;;;;;10.43;9.53;;;;;;;28.62;49.78;99386.72;531763;1089;116666;-60
2021/08/15 05:54:01;;;;;;;9.60;8.70;;;;;;;27.73;50.30;99385.71;532512;1089;115908;-61
2021/08/15 06:04:08;;;;;;;10.65;9.60;;;;;;;33.02;47.79;99386.70;532645;1088;116514;-60
2021/08/15 06:14:14;;;;;;;;;;;;;;;36.86;41.73;99378.55;531870;1089;116378;-61
2021/08/15 06:24:20;;;;;;;7.90;7.30;;;;;;;36.40;38.28;99385.73;519469;1089;102048;-60
2021/08/15 06:34:27;;;;;;;8.38;7.68;;;;;;;38.61;37.62;99386.70;525214;1089;116328;-61
2021/08/15 06:44:37;;;;;;;7.20;6.70;;;;;;;39.10;33.83;99390.27;532587;1089;116684;-61
2021/08/15 06:54:44;;;;;;;7.53;6.93;;;;;;;41.03;33.25;99391.48;532593;1088;116000;-62
2021/08/15 07:04:51;;;;;;;6.00;5.60;;;;;;;48.28;26.92;99382.41;531765;1089;117004;-59
2021/08/15 07:14:57;;;;;;;5.48;4.98;;;;;;;52.53;21.86;99380.90;532570;1090;116575;-60
2021/08/15 07:25:04;;;;;;;6.40;5.85;;;;;;;51.54;19.96;99373.58;532559;1088;115772;-61
2021/08/15 07:35:12;;;;;;;9.50;8.17;;;;;;;52.31;19.02;99377.92;531859;1089;117004;-61
2021/08/15 07:45:19;;;;;;;9.83;8.93;;;;;;;53.58;17.69;99375.81;532541;1089;116207;-61
2021/08/15 07:55:26;;;;;;;11.38;10.48;;;;;;;54.04;16.43;99370.66;532490;1089;115650;-61
2021/08/15 08:05:33;;;;;;;13.20;12.28;;;;;;;55.56;15.74;99377.88;532141;1090;118270;-61
2021/08/15 08:15:40;;;;;;;11.63;10.93;;;;;;;56.30;14.79;99384.58;532140;1090;116929;-61
2021/08/15 08:25:47;;;;;;;7.23;6.63;;;;;;;47.19;17.30;99362.73;522705;1089;10001732;-64
2021/08/15 08:35:54;;;;;;;8.57;7.80;;;;;;;40.88;21.95;99364.30;532431;1090;116293;-64
2021/08/15 08:46:01;;;;;;;7.60;6.90;;;;;;;36.55;25.27;99362.22;531281;1090;116703;-63
2021/08/15 08:56:09;;;;;;;7.03;6.33;;;;;;;33.88;28.46;99362.59;531731;1089;116070;-64
2021/08/15 09:06:24;;;;;;;9.73;7.13;;;;;;;33.31;29.53;99354.68;525608;1089;116514;-65
2021/08/15 09:16:52;;;;;;;8.53;5.90;;;;;;;32.79;29.83;99354.05;532434;1089;116287;-65
2021/08/15 09:27:02;;;;;;;4.80;4.23;;;;;;;33.23;29.18;99352.41;532354;1089;116171;-67
2021/08/15 09:37:21;;;;;;;5.40;4.30;;;;;;;33.04;28.53;99341.88;532484;1088;116766;-66
2021/08/15 09:47:27;;;;;;;9.95;4.25;;;;;;;33.10;28.74;99335.41;531770;1090;117103;-65
2021/08/15 09:57:35;;;;;;;3.70;3.40;;;;;;;32.94;28.16;99334.39;532358;1089;116460;-66
2021/08/15 10:07:42;;;;;;;3.47;3.13;;;;;;;32.61;28.88;99319.84;531708;1089;116062;-66
2021/08/15 10:17:53;;;;;;;3.83;3.00;;;;;;;32.43;28.81;99310.89;530242;1089;116225;-63
2021/08/15 10:28:01;;;;;;;3.90;2.90;;;;;;;31.44;29.27;99299.48;532529;1088;116590;-62
2021/08/15 10:38:29;;;;;;;2.40;2.20;;;;;;;30.53;29.38;99280.05;531775;1089;116413;-64
2021/08/15 10:48:53;;;;;;;4.03;2.27;;;;;;;30.34;30.58;99280.19;532558;1089;115830;-64
2021/08/15 10:58:59;;;;;;;3.77;2.27;;;;;;;30.30;30.80;99270.90;531388;1088;115935;-64
2021/08/15 11:09:07;;;;;;;4.38;2.68;;;;;;;29.72;30.52;99276.02;532332;1089;116128;-63
2021/08/15 11:19:32;;;;;;;3.73;2.70;;;;;;;29.60;30.62;99267.06;532598;1088;116290;-63
2021/08/15 11:29:40;;;;;;;3.67;2.47;;;;;;;29.65;30.99;99267.17;532640;1089;116133;-64
2021/08/15 11:39:47;;;;;;;3.93;3.23;;;;;;;29.28;30.61;99262.72;532630;1089;117316;-64
2021/08/15 11:49:54;;;;;;;2.28;2.08;;;;;;;28.95;31.21;99262.09;531797;1088;115994;-64
2021/08/15 12:00:08;;;;;;;5.13;2.95;;;;;;;28.95;31.66;99264.80;532535;1090;117118;-63
2021/08/15 12:10:31;;;;;;;4.90;2.87;;;;;;;29.41;31.99;99269.80;532499;1089;116642;-63
2021/08/15 12:20:45;;;;;;;4.00;3.37;;;;;;;29.53;30.93;99263.63;532606;1088;116590;-63
2021/08/15 12:30:52;;;;;;;5.30;2.70;;;;;;;29.42;31.30;99260.63;532488;1088;116056;-63
2021/08/15 12:41:26;;;;;;;3.98;2.78;;;;;;;29.37;31.17;99255.09;531788;1088;116674;-63
2021/08/15 12:51:32;;;;;;;2.57;1.73;;;;;;;29.21;31.30;99241.19;532549;1089;115971;-64
2021/08/15 13:01:39;;;;;;;3.25;2.55;;;;;;;29.06;31.78;99240.77;531843;1088;116856;-63
2021/08/15 13:11:46;;;;;;;6.40;2.43;;;;;;;28.75;32.30;99234.50;527800;1089;116229;-63
2021/08/15 13:21:52;;;;;;;3.13;2.57;;;;;;;29.13;32.49;99224.45;532533;1090;116770;-63
2021/08/15 13:31:59;;;;;;;2.60;2.28;;;;;;;29.27;32.26;99233.20;531861;1089;116411;-63
2021/08/15 13:42:06;;;;;;;4.53;2.63;;;;;;;28.77;31.99;99227.00;532627;1089;116456;-63
2021/08/15 13:52:11;;;;;;;;;;;;;;;28.85;32.65;99215.88;532584;1089;116262;-63
2021/08/15 14:02:18;;;;;;;2.67;2.00;;;;;;;29.08;32.50;99198.11;532190;1089;103326;-62
2021/08/15 14:12:25;;;;;;;6.03;2.15;;;;;;;28.98;32.22;99195.98;532550;1089;116784;-64
2021/08/15 14:22:33;;;;;;;3.37;2.33;;;;;;;28.88;32.22;99179.49;531871;1088;117592;-63
2021/08/15 14:32:39;;;;;;;3.58;2.05;;;;;;;28.71;31.93;99171.17;532545;1088;116163;-64
2021/08/15 14:42:46;;;;;;;4.10;2.20;;;;;;;28.44;32.12;99166.12;529427;1088;116216;-64
2021/08/15 14:52:51;;;;;;;;;;;;;;;28.46;33.02;99166.71;531817;1089;116646;-63
2021/08/15 15:02:57;;;;;;;2.27;2.00;;;;;;;28.29;32.47;99177.30;532899;1089;102454;-63
2021/08/15 15:13:04;;;;;;;2.10;1.90;;;;;;;28.31;32.81;99164.39;528954;1089;116572;-63
2021/08/15 15:23:14;;;;;;;3.28;2.58;;;;;;;28.69;32.90;99162.47;531860;1089;116318;-63
2021/08/15 15:33:21;;;;;;;2.90;2.63;;;;;;;28.40;33.02;99152.24;532557;1089;117117;-63
2021/08/15 15:43:27;;;;;;;2.73;2.53;;;;;;;28.44;32.87;99153.42;530312;1089;116608;-63
2021/08/15 15:53:34;;;;;;;2.70;2.50;;;;;;;28.23;32.84;99147.47;528760;1090;116420;-62
2021/08/15 16:03:40;;;;;;;5.55;3.23;;;;;;;28.12;33.62;99156.28;529188;1089;116901;-62
2021/08/15 16:13:47;;;;;;;3.57;2.37;;;;;;;27.99;33.65;99151.84;529889;1089;116082;-64
2021/08/15 16:23:53;;;;;;;2.87;2.10;;;;;;;27.84;33.97;99144.11;530619;1088;116808;-64
2021/08/15 16:34:00;;;;;;;3.48;2.40;;;;;;;27.63;34.34;99143.47;532556;1089;116791;-64
2021/08/15 16:44:07;;;;;;;4.45;2.50;;;;;;;27.34;35.08;99136.85;508339;1089;10001500;-63
2021/08/15 16:54:14;;;;;;;7.05;2.95;;;;;;;27.07;35.51;99112.82;528089;1090;117655;-64
2021/08/15 17:04:21;;;;;;;6.30;2.57;;;;;;;26.80;36.13;99112.98;532360;1089;115887;-63
2021/08/15 17:14:33;;;;;;;7.73;3.27;;;;;;;26.51;36.64;99118.73;532197;1089;116727;-63
2021/08/15 17:24:40;;;;;;;9.40;3.40;;;;;;;26.16;38.09;99113.67;531990;1089;116827;-63
2021/08/15 17:34:47;;;;;;;3.73;2.90;;;;;;;26.15;40.15;99118.22;531133;1089;119578;-62
2021/08/15 17:44:53;;;;;;;4.83;2.80;;;;;;;25.40;40.87;99118.55;532405;1088;116692;-63
2021/08/15 17:55:00;;;;;;;5.97;4.30;;;;;;;24.67;42.87;99128.94;532506;1088;116210;-62
2021/08/15 18:05:08;;;;;;;10.73;4.27;;;;;;;23.99;44.66;99143.90;515138;1090;116543;-61
2021/08/15 18:15:15;;;;;;;7.90;4.00;;;;;;;23.35;46.53;99149.22;526708;1089;118161;-62
2021/08/15 18:25:24;;;;;;;11.83;3.95;;;;;;;22.77;48.31;99147.39;532337;1089;117271;-63
2021/08/15 18:35:30;;;;;;;10.53;4.70;;;;;;;22.25;50.56;99168.73;531729;1089;116601;-64
2021/08/15 18:45:38;;;;;;;12.53;5.13;;;;;;;21.79;52.54;99167.06;532456;1089;117334;-65
2021/08/15 18:55:46;;;;;;;16.53;5.40;;;;;;;21.38;53.61;99157.55;520693;1088;117090;-64
2021/08/15 19:05:53;;;;;;;9.77;6.20;;;;;;;21.00;55.21;99157.47;522663;1089;116259;-65
2021/08/15 19:16:01;;;;;;;7.80;5.70;;;;;;;20.61;56.41;99159.19;523362;1089;116415;-65
2021/08/15 19:26:09;;;;;;;12.68;5.43;;;;;;;20.31;57.10;99182.97;531590;1089;117258;-64
2021/08/15 19:36:21;;;;;;;9.18;4.78;;;;;;;20.09;57.95;99172.03;532399;1089;116521;-66
2021/08/15 19:46:28;;;;;;;8.70;4.60;;;;;;;19.92;58.14;99176.54;532413;1090;116344;-65
2021/08/15 19:56:33;;;;;;;;;;;;;;;19.74;58.58;99150.09;532390;1089;116248;-65
2021/08/15 20:06:43;;;;;;;7.30;5.10;;;;;;;19.76;57.26;99172.06;532529;1088;103083;-66
2021/08/15 20:16:49;;;;;;;8.50;4.83;;;;;;;19.60;59.01;99159.59;531559;1089;116367;-65
2021/08/15 20:26:56;;;;;;;9.10;5.55;;;;;;;19.34;59.41;99146.48;532297;1088;117078;-65
2021/08/15 20:37:02;;;;;;;8.63;5.17;;;;;;;19.08;60.28;99127.00;531931;1089;115984;-65
2021/08/15 20:47:09;;;;;;;10.80;5.30;;;;;;;18.90;60.86;99130.59;530880;1089;116468;-64
2021/08/15 20:57:17;;;;;;;6.08;4.88;;;;;;;18.78;60.84;99112.47;527787;1089;116490;-64
2021/08/15 21:07:25;;;;;;;9.28;6.68;;;;;;;18.60;61.25;99105.44;515030;1089;116406;-64
2021/08/15 21:17:31;;;;;;;8.93;5.55;;;;;;;18.51;61.81;99117.88;514949;1089;116871;-65
2021/08/15 21:27:39;;;;;;;9.93;6.60;;;;;;;18.53;61.68;99107.10;514681;1089;116647;-64
2021/08/15 21:37:46;;;;;;;16.70;6.43;;;;;;;18.59;62.33;99088.67;514817;1088;117046;-64
2021/08/15 21:47:53;;;;;;;9.47;5.37;;;;;;;18.68;61.85;99086.01;514706;1089;118138;-64
2021/08/15 21:58:01;;;;;;;10.15;5.65;;;;;;;19.14;61.23;99066.97;514965;1089;116885;-64
2021/08/15 22:08:08;;;;;;;11.93;6.53;;;;;;;19.33;60.74;99063.13;514943;1089;116426;-63
2021/08/15 22:18:16;;;;;;;8.43;6.10;;;;;;;19.36;60.77;99062.78;515871;1088;115864;-63
2021/08/15 22:28:24;;;;;;;8.85;5.75;;;;;;;19.31;60.96;99041.98;516502;1088;116270;-65
2021/08/15 22:38:31;;;;;;;8.23;5.67;;;;;;;19.24;60.79;99027.71;514697;1089;116593;-62
2021/08/15 22:48:38;;;;;;;8.57;6.03;;;;;;;19.25;61.15;99017.88;515925;1090;115485;-61
2021/08/15 22:58:44;;;;;;;6.37;5.73;;;;;;;19.22;61.20;99019.07;515156;1089;117091;-61
2021/08/15 23:08:51;;;;;;;9.33;6.10;;;;;;;19.25;61.41;98999.25;515683;1088;116554;-60
2021/08/15 23:18:58;;;;;;;8.83;6.30;;;;;;;19.20;61.52;98978.47;529641;1089;116414;-61
2021/08/15 23:29:04;;;;;;;8.63;6.33;;;;;;;19.17;61.95;98954.86;531742;1089;117555;-61
2021/08/15 23:39:10;;;;;;;8.73;6.37;;;;;;;19.16;62.28;98945.22;532591;1088;116931;-61
2021/08/15 23:49:17;;;;;;;10.47;5.97;;;;;;;19.04;62.47;98929.62;532565;1089;115463;-61
2021/08/15 23:59:23;;;;;;;7.70;6.10;;;;;;;18.99;62.60;98915.98;531809;1089;117011;-60
